Terminal Aerodrome Forecast
Issued by NWS

Home | Current Version | Previous Version | Text Only | Print | Product List | Glossary On
Versions: 1 2 3 4 5 6 7 8 9 10 11 12 13 14 15 16 17
000
FTUS44 KSJT 300500
TAFSOA
TAF
KSOA 300520Z 3006/3106 VRB05KT P6SM BKN250
     FM301200 15005KT P6SM SCT015
     FM301500 16006KT P6SM SCT060
     FM302300 14005KT P6SM SCT070 BKN120=

USA.gov is the U.S. government's official web portal to all federal, state and local government web resources and services.